Time,TemperatureF,DewpointF,PressureIn,WindDirection,WindDirectionDegrees,WindSpeedMPH,WindSpeedGustMPH,Humidity,HourlyPrecipIn,Conditions,Clouds,dailyrainin,SoftwareType,DateUTC
2013-01-31 00:01:00,45.0,38.0,29.96,West,276,5.0,13.0,76,0.00,,,0.64,,2013-01-31 06:01:00,
2013-01-31 08:03:00,37.0,31.0,30.14,West,276,3.0,7.0,80,0.00,,,0.60,,2013-01-31 14:03:00,
2013-01-31 08:11:00,37.0,31.0,30.14,West,276,3.0,7.0,80,0.00,,,0.60,,2013-01-31 14:11:00,
2013-01-31 08:22:00,38.0,31.0,30.14,WNW,285,3.0,12.0,75,0.00,,,0.60,,2013-01-31 14:22:00,
2013-01-31 08:32:00,40.0,32.0,30.15,West,260,3.0,8.0,72,0.00,,,0.59,,2013-01-31 14:32:00,
2013-01-31 08:42:00,40.0,32.0,30.15,West,260,3.0,8.0,72,0.00,,,0.59,,2013-01-31 14:42:00,
2013-01-31 08:52:00,41.0,32.0,30.15,West,269,3.0,13.0,69,0.00,,,0.59,,2013-01-31 14:52:00,
2013-01-31 09:03:00,42.0,31.0,30.16,WSW,257,3.0,9.0,66,0.00,,,0.59,,2013-01-31 15:03:00,
2013-01-31 09:12:00,42.0,31.0,30.16,WSW,257,3.0,9.0,66,0.00,,,0.59,,2013-01-31 15:12:00,
2013-01-31 09:23:00,42.0,30.0,30.16,SSW,200,6.0,17.0,62,0.00,,,0.59,,2013-01-31 15:23:00,
2013-01-31 09:32:00,43.0,30.0,30.17,WNW,297,4.0,11.0,60,0.00,,,0.59,,2013-01-31 15:32:00,
2013-01-31 09:42:00,43.0,30.0,30.17,WNW,297,4.0,11.0,60,0.00,,,0.59,,2013-01-31 15:42:00,
2013-01-31 09:52:00,44.0,30.0,30.18,WSW,242,4.0,12.0,58,0.00,,,0.59,,2013-01-31 15:52:00,
2013-01-31 10:03:00,44.0,30.0,30.18,WSW,242,4.0,12.0,58,0.00,,,0.59,,2013-01-31 16:03:00,
2013-01-31 10:13:00,44.0,30.0,30.18,WSW,242,4.0,12.0,58,0.00,,,0.59,,2013-01-31 16:13:00,
2013-01-31 10:22:00,46.0,30.0,30.19,West,276,3.0,12.0,54,0.00,,,0.59,,2013-01-31 16:22:00,
2013-01-31 10:33:00,46.0,29.0,30.20,WNW,290,5.0,15.0,52,0.00,,,0.59,,2013-01-31 16:33:00,
2013-01-31 10:42:00,46.0,29.0,30.20,WNW,290,5.0,15.0,52,0.00,,,0.59,,2013-01-31 16:42:00,
2013-01-31 10:52:00,47.0,29.0,30.20,West,277,4.0,11.0,50,0.00,,,0.59,,2013-01-31 16:52:00,
2013-01-31 11:03:00,48.0,29.0,30.20,West,276,6.0,14.0,48,0.00,,,0.59,,2013-01-31 17:03:00,
2013-01-31 11:13:00,48.0,29.0,30.20,West,276,6.0,14.0,48,0.00,,,0.59,,2013-01-31 17:13:00,
2013-01-31 11:23:00,49.0,30.0,30.20,WNW,288,3.0,12.0,48,0.00,,,0.59,,2013-01-31 17:23:00,
2013-01-31 11:32:00,49.0,28.0,30.20,NW,319,5.0,13.0,44,0.00,,,0.59,,2013-01-31 17:32:00,
2013-01-31 11:43:00,49.0,28.0,30.20,NW,319,5.0,13.0,44,0.00,,,0.59,,2013-01-31 17:43:00,
2013-01-31 11:53:00,50.0,28.0,30.19,WNW,284,6.0,11.0,42,0.00,,,0.59,,2013-01-31 17:53:00,
2013-01-31 12:03:00,50.0,28.0,30.19,WNW,284,4.0,15.0,43,0.00,,,0.59,,2013-01-31 18:03:00,
2013-01-31 12:12:00,52.0,28.0,30.19,WSW,242,3.0,11.0,40,0.00,,,0.59,,2013-01-31 18:12:00,
2013-01-31 12:22:00,52.0,28.0,30.19,WSW,242,3.0,11.0,40,0.00,,,0.59,,2013-01-31 18:22:00,
2013-01-31 12:32:00,52.0,28.0,30.19,West,266,3.0,14.0,40,0.00,,,0.57,,2013-01-31 18:32:00,
2013-01-31 12:43:00,52.0,28.0,30.19,West,266,3.0,14.0,40,0.00,,,0.57,,2013-01-31 18:43:00,
2013-01-31 12:52:00,52.0,28.0,30.18,SSW,203,3.0,11.0,40,0.00,,,0.57,,2013-01-31 18:52:00,
2013-01-31 13:03:00,53.0,29.0,30.17,West,263,3.0,9.0,39,0.00,,,0.57,,2013-01-31 19:03:00,
2013-01-31 13:12:00,53.0,29.0,30.17,West,263,3.0,9.0,39,0.00,,,0.57,,2013-01-31 19:12:00,
2013-01-31 13:22:00,53.0,27.0,30.17,SSW,213,2.0,10.0,37,0.00,,,0.57,,2013-01-31 19:22:00,
2013-01-31 13:33:00,54.0,28.0,30.17,WNW,282,3.0,8.0,36,0.00,,,0.53,,2013-01-31 19:33:00,
2013-01-31 13:42:00,54.0,28.0,30.17,WNW,282,3.0,8.0,36,0.00,,,0.53,,2013-01-31 19:42:00,
2013-01-31 13:52:00,54.0,27.0,30.16,South,191,3.0,7.0,35,0.00,,,0.53,,2013-01-31 19:52:00,
2013-01-31 14:02:00,54.0,26.0,30.16,West,278,6.0,14.0,34,0.00,,,0.53,,2013-01-31 20:02:00,
2013-01-31 14:12:00,54.0,26.0,30.16,West,278,6.0,14.0,34,0.00,,,0.53,,2013-01-31 20:12:00,
2013-01-31 14:22:00,55.0,29.0,30.16,West,280,1.0,8.0,36,0.00,,,0.53,,2013-01-31 20:22:00,
2013-01-31 14:32:00,55.0,28.0,30.16,WNW,285,4.0,9.0,35,0.00,,,0.53,,2013-01-31 20:32:00,
2013-01-31 14:42:00,55.0,28.0,30.16,WNW,285,4.0,9.0,35,0.00,,,0.53,,2013-01-31 20:42:00,
2013-01-31 14:52:00,55.0,27.0,30.15,WSW,256,3.0,10.0,34,0.00,,,0.53,,2013-01-31 20:52:00,
2013-01-31 15:02:00,55.0,27.0,30.15,NNW,331,1.0,7.0,34,0.00,,,0.53,,2013-01-31 21:02:00,
2013-01-31 15:12:00,55.0,27.0,30.15,NNW,331,1.0,7.0,34,0.00,,,0.53,,2013-01-31 21:12:00,
2013-01-31 15:22:00,55.0,28.0,30.15,SW,231,1.0,7.0,35,0.00,,,0.53,,2013-01-31 21:22:00,
2013-01-31 15:32:00,55.0,29.0,30.15,West,264,3.0,7.0,36,0.00,,,0.28,,2013-01-31 21:32:00,
2013-01-31 15:42:00,55.0,29.0,30.15,West,264,3.0,7.0,36,0.00,,,0.28,,2013-01-31 21:42:00,
2013-01-31 15:52:00,55.0,27.0,30.16,West,273,1.0,7.0,34,0.00,,,0.28,,2013-01-31 21:52:00,
2013-01-31 16:03:00,55.0,27.0,30.16,West,276,1.0,5.0,34,0.00,,,0.28,,2013-01-31 22:03:00,
2013-01-31 16:11:00,55.0,27.0,30.16,West,276,1.0,5.0,34,0.00,,,0.28,,2013-01-31 22:11:00,
2013-01-31 16:22:00,55.0,26.0,30.16,West,264,3.0,6.0,33,0.00,,,0.28,,2013-01-31 22:22:00,
2013-01-31 16:33:00,55.0,31.0,30.16,North,358,1.0,4.0,39,0.00,,,0.11,,2013-01-31 22:33:00,
2013-01-31 16:42:00,55.0,31.0,30.16,North,358,1.0,4.0,39,0.00,,,0.11,,2013-01-31 22:42:00,
2013-01-31 16:51:00,55.0,32.0,30.16,West,263,0.0,3.0,42,0.00,,,0.11,,2013-01-31 22:51:00,
2013-01-31 17:03:00,54.0,33.0,30.16,West,271,0.0,1.0,45,0.00,,,0.11,,2013-01-31 23:03:00,
2013-01-31 17:12:00,54.0,33.0,30.16,West,271,0.0,1.0,45,0.00,,,0.11,,2013-01-31 23:12:00,
2013-01-31 17:22:00,53.0,33.0,30.16,WNW,284,0.0,2.0,47,0.00,,,0.11,,2013-01-31 23:22:00,
2013-01-31 17:32:00,50.0,32.0,30.17,West,281,0.0,0.0,50,0.00,,,0.11,,2013-01-31 23:32:00,
2013-01-31 17:42:00,50.0,32.0,30.17,West,281,0.0,0.0,50,0.00,,,0.11,,2013-01-31 23:42:00,
2013-01-31 17:52:00,47.0,32.0,30.18,West,281,0.0,0.0,55,0.00,,,0.11,,2013-01-31 23:52:00,
2013-01-31 18:02:00,45.0,32.0,30.18,West,281,0.0,0.0,61,0.00,,,0.11,,2013-02-01 00:02:00,
2013-01-31 18:11:00,45.0,32.0,30.18,West,281,0.0,0.0,61,0.00,,,0.11,,2013-02-01 00:11:00,
2013-01-31 18:22:00,45.0,32.0,30.18,West,281,0.0,0.0,61,0.00,,,0.11,,2013-02-01 00:22:00,
2013-01-31 18:32:00,43.0,32.0,30.20,West,281,0.0,0.0,65,0.00,,,0.05,,2013-02-01 00:32:00,
2013-01-31 18:42:00,43.0,32.0,30.20,West,281,0.0,0.0,65,0.00,,,0.05,,2013-02-01 00:42:00,
2013-01-31 18:52:00,42.0,33.0,30.20,West,281,0.0,0.0,69,0.00,,,0.05,,2013-02-01 00:52:00,
2013-01-31 19:01:00,42.0,35.0,30.20,West,281,0.0,0.0,77,0.00,,,0.05,,2013-02-01 01:01:00,
2013-01-31 19:11:00,41.0,33.0,30.20,West,281,0.0,0.0,73,0.00,,,0.05,,2013-02-01 01:11:00,
2013-01-31 19:21:00,41.0,33.0,30.20,West,281,0.0,0.0,73,0.00,,,0.05,,2013-02-01 01:21:00,
2013-01-31 19:32:00,41.0,33.0,30.21,West,281,0.0,0.0,72,0.00,,,0.03,,2013-02-01 01:32:00,
2013-01-31 19:42:00,41.0,33.0,30.21,West,281,0.0,0.0,72,0.00,,,0.03,,2013-02-01 01:42:00,
2013-01-31 19:52:00,41.0,33.0,30.21,West,281,0.0,0.0,73,0.00,,,0.03,,2013-02-01 01:52:00,
2013-01-31 20:02:00,41.0,35.0,30.22,West,281,0.0,0.0,78,0.00,,,0.03,,2013-02-01 02:02:00,
2013-01-31 20:11:00,41.0,35.0,30.22,West,281,0.0,0.0,78,0.00,,,0.03,,2013-02-01 02:11:00,
2013-01-31 20:21:00,40.0,32.0,30.22,West,281,0.0,0.0,74,0.00,,,0.03,,2013-02-01 02:21:00,
2013-01-31 20:32:00,40.0,33.0,30.23,West,281,0.0,0.0,76,0.00,,,0.00,,2013-02-01 02:32:00,
2013-01-31 20:42:00,40.0,33.0,30.23,West,281,0.0,0.0,76,0.00,,,0.00,,2013-02-01 02:42:00,
2013-01-31 20:52:00,39.0,33.0,30.23,West,281,0.0,0.0,79,0.00,,,0.00,,2013-02-01 02:52:00,
2013-01-31 21:02:00,39.0,33.0,30.23,West,281,0.0,0.0,80,0.00,,,0.00,,2013-02-01 03:02:00,
2013-01-31 21:12:00,39.0,33.0,30.23,West,281,0.0,0.0,80,0.00,,,0.00,,2013-02-01 03:12:00,
2013-01-31 21:21:00,38.0,34.0,30.24,West,281,0.0,0.0,84,0.00,,,0.00,,2013-02-01 03:21:00,
2013-01-31 21:33:00,37.0,32.0,30.23,West,281,0.0,0.0,83,0.00,,,0.00,,2013-02-01 03:33:00,
2013-01-31 21:42:00,37.0,32.0,30.23,West,281,0.0,0.0,83,0.00,,,0.00,,2013-02-01 03:42:00,
2013-01-31 21:51:00,37.0,33.0,30.23,West,281,0.0,0.0,84,0.00,,,0.00,,2013-02-01 03:51:00,
2013-01-31 22:02:00,36.0,32.0,30.23,West,281,0.0,0.0,86,0.00,,,0.00,,2013-02-01 04:02:00,
2013-01-31 22:11:00,36.0,32.0,30.23,West,281,0.0,0.0,86,0.00,,,0.00,,2013-02-01 04:11:00,
2013-01-31 22:21:00,36.0,33.0,30.23,West,281,0.0,0.0,88,0.00,,,0.00,,2013-02-01 04:21:00,
2013-01-31 22:32:00,35.0,32.0,30.23,West,281,0.0,0.0,89,0.00,,,0.00,,2013-02-01 04:32:00,
2013-01-31 22:42:00,35.0,32.0,30.23,West,281,0.0,0.0,89,0.00,,,0.00,,2013-02-01 04:42:00,
2013-01-31 22:51:00,35.0,32.0,30.24,West,281,0.0,0.0,90,0.00,,,0.00,,2013-02-01 04:51:00,
2013-01-31 23:03:00,35.0,33.0,30.24,West,281,0.0,0.0,91,0.00,,,0.00,,2013-02-01 05:03:00,
2013-01-31 23:12:00,35.0,33.0,30.24,West,281,0.0,0.0,91,0.00,,,0.00,,2013-02-01 05:12:00,
2013-01-31 23:22:00,35.0,33.0,30.25,West,281,0.0,0.0,92,0.00,,,0.00,,2013-02-01 05:22:00,
2013-01-31 23:32:00,34.0,32.0,30.26,West,281,0.0,0.0,92,0.00,,,0.00,,2013-02-01 05:32:00,
2013-01-31 23:42:00,34.0,32.0,30.26,West,281,0.0,0.0,92,0.00,,,0.00,,2013-02-01 05:42:00,
2013-01-31 23:52:00,35.0,33.0,30.26,WSW,255,0.0,1.0,93,0.00,,,0.00,,2013-02-01 05:52:00,